sensor_id;sensor_type;location;lat;lon;timestamp;P1;durP1;ratioP1;P2;durP2;ratioP2
69253;SDS011;56364;41.816;12.448;2022-10-31T00:04:02;15.45;;;4.63;;
69253;SDS011;56364;41.816;12.448;2022-10-31T00:06:28;16.70;;;4.72;;
69253;SDS011;56364;41.816;12.448;2022-10-31T00:08:56;12.52;;;4.95;;
69253;SDS011;56364;41.816;12.448;2022-10-31T00:11:22;11.68;;;4.15;;
69253;SDS011;56364;41.816;12.448;2022-10-31T00:13:49;9.98;;;4.43;;
69253;SDS011;56364;41.816;12.448;2022-10-31T00:16:16;10.70;;;4.63;;
69253;SDS011;56364;41.816;12.448;2022-10-31T00:18:42;12.32;;;3.92;;
69253;SDS011;56364;41.816;12.448;2022-10-31T00:21:08;9.52;;;4.32;;
69253;SDS011;56364;41.816;12.448;2022-10-31T00:23:34;9.80;;;4.43;;
69253;SDS011;56364;41.816;12.448;2022-10-31T00:26:01;11.68;;;5.10;;
69253;SDS011;56364;41.816;12.448;2022-10-31T00:28:27;13.30;;;4.63;;
69253;SDS011;56364;41.816;12.448;2022-10-31T00:30:57;11.15;;;4.22;;
69253;SDS011;56364;41.816;12.448;2022-10-31T00:33:24;11.50;;;4.05;;
69253;SDS011;56364;41.816;12.448;2022-10-31T00:38:15;8.63;;;4.10;;
69253;SDS011;56364;41.816;12.448;2022-10-31T00:43:07;11.02;;;3.58;;
69253;SDS011;56364;41.816;12.448;2022-10-31T00:45:33;10.90;;;4.60;;
69253;SDS011;56364;41.816;12.448;2022-10-31T00:50:25;13.60;;;4.20;;
69253;SDS011;56364;41.816;12.448;2022-10-31T00:55:17;8.40;;;3.63;;
69253;SDS011;56364;41.816;12.448;2022-10-31T01:00:09;12.68;;;3.90;;
69253;SDS011;56364;41.816;12.448;2022-10-31T01:02:36;10.40;;;3.83;;
69253;SDS011;56364;41.816;12.448;2022-10-31T01:05:02;11.50;;;4.13;;
69253;SDS011;56364;41.816;12.448;2022-10-31T01:07:28;9.88;;;3.95;;
69253;SDS011;56364;41.816;12.448;2022-10-31T01:09:54;11.80;;;4.18;;
69253;SDS011;56364;41.816;12.448;2022-10-31T01:14:46;10.40;;;4.05;;
69253;SDS011;56364;41.816;12.448;2022-10-31T01:17:12;9.80;;;3.63;;
69253;SDS011;56364;41.816;12.448;2022-10-31T01:19:38;9.60;;;4.18;;
69253;SDS011;56364;41.816;12.448;2022-10-31T01:24:30;9.93;;;4.07;;
69253;SDS011;56364;41.816;12.448;2022-10-31T01:26:56;11.10;;;3.92;;
69253;SDS011;56364;41.816;12.448;2022-10-31T01:29:22;7.43;;;3.75;;
69253;SDS011;56364;41.816;12.448;2022-10-31T01:31:48;9.23;;;3.53;;
69253;SDS011;56364;41.816;12.448;2022-10-31T01:34:15;11.52;;;4.03;;
69253;SDS011;56364;41.816;12.448;2022-10-31T01:36:42;13.27;;;3.92;;
69253;SDS011;56364;41.816;12.448;2022-10-31T01:39:10;10.57;;;4.40;;
69253;SDS011;56364;41.816;12.448;2022-10-31T01:41:38;8.45;;;3.88;;
69253;SDS011;56364;41.816;12.448;2022-10-31T01:46:41;10.25;;;3.50;;
69253;SDS011;56364;41.816;12.448;2022-10-31T01:49:11;9.30;;;3.63;;
69253;SDS011;56364;41.816;12.448;2022-10-31T01:51:49;12.32;;;3.80;;
69253;SDS011;56364;41.816;12.448;2022-10-31T01:54:17;10.60;;;3.55;;
69253;SDS011;56364;41.816;12.448;2022-10-31T01:56:44;10.68;;;3.17;;
69253;SDS011;56364;41.816;12.448;2022-10-31T01:59:11;9.40;;;3.72;;
69253;SDS011;56364;41.816;12.448;2022-10-31T02:01:38;7.57;;;2.85;;
69253;SDS011;56364;41.816;12.448;2022-10-31T02:09:03;9.02;;;3.65;;
69253;SDS011;56364;41.816;12.448;2022-10-31T02:11:29;9.38;;;3.20;;
69253;SDS011;56364;41.816;12.448;2022-10-31T02:13:55;9.38;;;3.90;;
69253;SDS011;56364;41.816;12.448;2022-10-31T02:16:21;9.02;;;3.35;;
69253;SDS011;56364;41.816;12.448;2022-10-31T02:18:47;9.73;;;3.10;;
69253;SDS011;56364;41.816;12.448;2022-10-31T02:24:11;12.25;;;3.40;;
69253;SDS011;56364;41.816;12.448;2022-10-31T02:31:58;8.77;;;3.08;;
69253;SDS011;56364;41.816;12.448;2022-10-31T02:34:30;8.90;;;3.38;;
69253;SDS011;56364;41.816;12.448;2022-10-31T02:37:00;8.20;;;3.08;;
69253;SDS011;56364;41.816;12.448;2022-10-31T02:39:35;9.18;;;3.30;;
69253;SDS011;56364;41.816;12.448;2022-10-31T02:42:11;7.25;;;3.03;;
69253;SDS011;56364;41.816;12.448;2022-10-31T02:49:42;8.95;;;2.97;;
69253;SDS011;56364;41.816;12.448;2022-10-31T02:52:21;8.05;;;3.78;;
69253;SDS011;56364;41.816;12.448;2022-10-31T02:54:48;8.00;;;3.42;;
69253;SDS011;56364;41.816;12.448;2022-10-31T02:57:15;7.65;;;3.67;;
69253;SDS011;56364;41.816;12.448;2022-10-31T02:59:45;10.73;;;3.90;;
69253;SDS011;56364;41.816;12.448;2022-10-31T03:04:46;8.50;;;3.33;;
69253;SDS011;56364;41.816;12.448;2022-10-31T03:07:23;6.82;;;2.80;;
69253;SDS011;56364;41.816;12.448;2022-10-31T03:09:53;9.25;;;2.95;;
69253;SDS011;56364;41.816;12.448;2022-10-31T03:17:18;10.38;;;3.38;;
69253;SDS011;56364;41.816;12.448;2022-10-31T03:19:47;10.43;;;3.15;;
69253;SDS011;56364;41.816;12.448;2022-10-31T03:22:19;8.75;;;2.80;;
69253;SDS011;56364;41.816;12.448;2022-10-31T03:24:47;5.80;;;2.75;;
69253;SDS011;56364;41.816;12.448;2022-10-31T03:27:14;5.95;;;2.83;;
69253;SDS011;56364;41.816;12.448;2022-10-31T03:29:42;7.75;;;2.50;;
69253;SDS011;56364;41.816;12.448;2022-10-31T03:32:10;6.18;;;2.60;;
69253;SDS011;56364;41.816;12.448;2022-10-31T03:34:37;6.20;;;2.90;;
69253;SDS011;56364;41.816;12.448;2022-10-31T03:37:05;7.47;;;2.92;;
69253;SDS011;56364;41.816;12.448;2022-10-31T03:39:32;6.43;;;2.75;;
69253;SDS011;56364;41.816;12.448;2022-10-31T03:44:30;7.35;;;2.47;;
69253;SDS011;56364;41.816;12.448;2022-10-31T03:46:58;6.18;;;3.25;;
69253;SDS011;56364;41.816;12.448;2022-10-31T03:49:24;7.55;;;2.63;;
69253;SDS011;56364;41.816;12.448;2022-10-31T03:52:02;6.70;;;2.58;;
69253;SDS011;56364;41.816;12.448;2022-10-31T03:54:45;8.80;;;2.80;;
69253;SDS011;56364;41.816;12.448;2022-10-31T03:57:18;6.63;;;2.53;;
69253;SDS011;56364;41.816;12.448;2022-10-31T03:59:47;7.55;;;3.05;;
69253;SDS011;56364;41.816;12.448;2022-10-31T04:02:16;8.73;;;3.03;;
69253;SDS011;56364;41.816;12.448;2022-10-31T04:04:43;5.03;;;2.38;;
69253;SDS011;56364;41.816;12.448;2022-10-31T04:07:09;6.35;;;2.83;;
69253;SDS011;56364;41.816;12.448;2022-10-31T04:09:36;7.35;;;2.70;;
69253;SDS011;56364;41.816;12.448;2022-10-31T04:12:03;10.23;;;2.30;;
69253;SDS011;56364;41.816;12.448;2022-10-31T04:14:31;8.23;;;3.22;;
69253;SDS011;56364;41.816;12.448;2022-10-31T04:16:58;6.85;;;2.50;;
69253;SDS011;56364;41.816;12.448;2022-10-31T04:19:25;5.15;;;2.55;;
69253;SDS011;56364;41.816;12.448;2022-10-31T04:21:51;7.28;;;2.90;;
69253;SDS011;56364;41.816;12.448;2022-10-31T04:24:17;7.78;;;2.60;;
69253;SDS011;56364;41.816;12.448;2022-10-31T04:26:43;9.10;;;2.65;;
69253;SDS011;56364;41.816;12.448;2022-10-31T04:29:09;12.75;;;2.90;;
69253;SDS011;56364;41.816;12.448;2022-10-31T04:34:01;5.90;;;2.25;;
69253;SDS011;56364;41.816;12.448;2022-10-31T04:36:27;6.43;;;3.10;;
69253;SDS011;56364;41.816;12.448;2022-10-31T04:41:19;7.18;;;2.40;;
69253;SDS011;56364;41.816;12.448;2022-10-31T04:43:45;6.65;;;2.55;;
69253;SDS011;56364;41.816;12.448;2022-10-31T04:46:11;9.88;;;3.17;;
69253;SDS011;56364;41.816;12.448;2022-10-31T04:48:37;5.43;;;2.28;;
69253;SDS011;56364;41.816;12.448;2022-10-31T04:51:03;9.63;;;2.80;;
69253;SDS011;56364;41.816;12.448;2022-10-31T04:53:29;6.95;;;2.75;;
69253;SDS011;56364;41.816;12.448;2022-10-31T04:58:21;7.43;;;2.92;;
69253;SDS011;56364;41.816;12.448;2022-10-31T05:00:50;6.00;;;2.88;;
69253;SDS011;56364;41.816;12.448;2022-10-31T05:03:16;6.80;;;3.28;;
69253;SDS011;56364;41.816;12.448;2022-10-31T05:05:42;10.57;;;3.42;;
69253;SDS011;56364;41.816;12.448;2022-10-31T05:10:34;5.78;;;2.28;;
69253;SDS011;56364;41.816;12.448;2022-10-31T05:13:01;6.80;;;2.50;;
69253;SDS011;56364;41.816;12.448;2022-10-31T05:15:27;8.48;;;2.95;;
69253;SDS011;56364;41.816;12.448;2022-10-31T05:17:54;6.85;;;2.83;;
69253;SDS011;56364;41.816;12.448;2022-10-31T05:20:20;7.05;;;2.65;;
69253;SDS011;56364;41.816;12.448;2022-10-31T05:22:51;11.10;;;3.42;;
69253;SDS011;56364;41.816;12.448;2022-10-31T05:25:18;10.65;;;2.90;;
69253;SDS011;56364;41.816;12.448;2022-10-31T05:27:47;6.65;;;2.80;;
69253;SDS011;56364;41.816;12.448;2022-10-31T05:30:14;5.78;;;2.55;;
69253;SDS011;56364;41.816;12.448;2022-10-31T05:32:41;5.97;;;2.60;;
69253;SDS011;56364;41.816;12.448;2022-10-31T05:35:08;6.32;;;2.90;;
69253;SDS011;56364;41.816;12.448;2022-10-31T05:37:35;5.82;;;2.20;;
69253;SDS011;56364;41.816;12.448;2022-10-31T05:40:04;8.68;;;2.83;;
69253;SDS011;56364;41.816;12.448;2022-10-31T05:42:30;7.75;;;2.72;;
69253;SDS011;56364;41.816;12.448;2022-10-31T05:47:23;8.48;;;3.05;;
69253;SDS011;56364;41.816;12.448;2022-10-31T05:49:49;5.00;;;2.45;;
69253;SDS011;56364;41.816;12.448;2022-10-31T05:52:15;8.55;;;3.22;;
69253;SDS011;56364;41.816;12.448;2022-10-31T05:54:41;7.72;;;3.05;;
69253;SDS011;56364;41.816;12.448;2022-10-31T05:59:33;7.32;;;2.63;;
69253;SDS011;56364;41.816;12.448;2022-10-31T06:04:25;5.75;;;2.47;;
69253;SDS011;56364;41.816;12.448;2022-10-31T06:09:17;12.07;;;3.30;;
69253;SDS011;56364;41.816;12.448;2022-10-31T06:11:43;12.70;;;3.10;;
69253;SDS011;56364;41.816;12.448;2022-10-31T06:16:35;8.30;;;3.20;;
69253;SDS011;56364;41.816;12.448;2022-10-31T06:21:27;7.72;;;2.78;;
69253;SDS011;56364;41.816;12.448;2022-10-31T06:26:19;9.10;;;3.15;;
69253;SDS011;56364;41.816;12.448;2022-10-31T06:31:11;8.07;;;2.80;;
69253;SDS011;56364;41.816;12.448;2022-10-31T06:36:03;8.50;;;2.70;;
69253;SDS011;56364;41.816;12.448;2022-10-31T06:38:29;9.23;;;3.28;;
69253;SDS011;56364;41.816;12.448;2022-10-31T06:40:55;7.63;;;3.28;;
69253;SDS011;56364;41.816;12.448;2022-10-31T06:43:21;8.70;;;2.80;;
69253;SDS011;56364;41.816;12.448;2022-10-31T06:45:50;11.43;;;2.90;;
69253;SDS011;56364;41.816;12.448;2022-10-31T06:48:16;7.65;;;2.75;;
69253;SDS011;56364;41.816;12.448;2022-10-31T06:50:42;7.28;;;2.65;;
69253;SDS011;56364;41.816;12.448;2022-10-31T06:53:08;10.30;;;2.88;;
69253;SDS011;56364;41.816;12.448;2022-10-31T06:58:00;8.25;;;2.75;;
69253;SDS011;56364;41.816;12.448;2022-10-31T07:00:27;4.82;;;2.60;;
69253;SDS011;56364;41.816;12.448;2022-10-31T07:03:04;10.38;;;3.22;;
69253;SDS011;56364;41.816;12.448;2022-10-31T07:05:31;7.85;;;2.88;;
69253;SDS011;56364;41.816;12.448;2022-10-31T07:07:58;8.90;;;2.60;;
69253;SDS011;56364;41.816;12.448;2022-10-31T07:10:25;7.03;;;2.67;;
69253;SDS011;56364;41.816;12.448;2022-10-31T07:12:58;7.47;;;3.00;;
69253;SDS011;56364;41.816;12.448;2022-10-31T07:15:25;9.27;;;2.60;;
69253;SDS011;56364;41.816;12.448;2022-10-31T07:17:51;8.48;;;3.20;;
69253;SDS011;56364;41.816;12.448;2022-10-31T07:20:17;7.13;;;2.88;;
69253;SDS011;56364;41.816;12.448;2022-10-31T07:22:44;7.63;;;2.60;;
69253;SDS011;56364;41.816;12.448;2022-10-31T07:25:10;6.65;;;2.47;;
69253;SDS011;56364;41.816;12.448;2022-10-31T07:27:37;5.35;;;2.50;;
69253;SDS011;56364;41.816;12.448;2022-10-31T07:30:03;9.80;;;3.17;;
69253;SDS011;56364;41.816;12.448;2022-10-31T07:32:39;9.65;;;3.15;;
69253;SDS011;56364;41.816;12.448;2022-10-31T07:35:07;11.52;;;3.22;;
69253;SDS011;56364;41.816;12.448;2022-10-31T07:37:33;11.48;;;2.35;;
69253;SDS011;56364;41.816;12.448;2022-10-31T07:42:25;6.80;;;2.17;;
69253;SDS011;56364;41.816;12.448;2022-10-31T07:47:17;8.82;;;2.88;;
69253;SDS011;56364;41.816;12.448;2022-10-31T07:49:43;4.75;;;2.70;;
69253;SDS011;56364;41.816;12.448;2022-10-31T07:52:09;6.55;;;2.55;;
69253;SDS011;56364;41.816;12.448;2022-10-31T07:54:35;7.50;;;2.47;;
69253;SDS011;56364;41.816;12.448;2022-10-31T07:57:01;6.43;;;2.35;;
69253;SDS011;56364;41.816;12.448;2022-10-31T07:59:27;6.32;;;2.28;;
69253;SDS011;56364;41.816;12.448;2022-10-31T08:01:53;7.60;;;2.95;;
69253;SDS011;56364;41.816;12.448;2022-10-31T08:04:19;6.10;;;2.13;;
69253;SDS011;56364;41.816;12.448;2022-10-31T08:06:45;5.00;;;2.13;;
69253;SDS011;56364;41.816;12.448;2022-10-31T08:09:13;5.65;;;2.30;;
69253;SDS011;56364;41.816;12.448;2022-10-31T08:14:05;7.05;;;2.28;;
69253;SDS011;56364;41.816;12.448;2022-10-31T08:16:31;3.97;;;2.20;;
69253;SDS011;56364;41.816;12.448;2022-10-31T08:18:57;7.50;;;2.90;;
69253;SDS011;56364;41.816;12.448;2022-10-31T08:21:23;4.15;;;1.85;;
69253;SDS011;56364;41.816;12.448;2022-10-31T08:23:49;8.98;;;3.03;;
69253;SDS011;56364;41.816;12.448;2022-10-31T08:28:41;4.03;;;2.15;;
69253;SDS011;56364;41.816;12.448;2022-10-31T08:31:07;6.22;;;2.05;;
69253;SDS011;56364;41.816;12.448;2022-10-31T08:33:35;9.35;;;2.50;;
69253;SDS011;56364;41.816;12.448;2022-10-31T08:36:01;6.43;;;2.30;;
69253;SDS011;56364;41.816;12.448;2022-10-31T08:38:27;6.38;;;2.40;;
69253;SDS011;56364;41.816;12.448;2022-10-31T08:43:19;5.70;;;2.15;;
69253;SDS011;56364;41.816;12.448;2022-10-31T08:45:47;5.57;;;2.38;;
69253;SDS011;56364;41.816;12.448;2022-10-31T08:48:14;8.10;;;2.40;;
69253;SDS011;56364;41.816;12.448;2022-10-31T08:50:41;7.20;;;2.65;;
69253;SDS011;56364;41.816;12.448;2022-10-31T08:57:59;6.45;;;2.00;;
69253;SDS011;56364;41.816;12.448;2022-10-31T09:02:58;7.30;;;2.30;;
69253;SDS011;56364;41.816;12.448;2022-10-31T09:05:24;7.07;;;2.10;;
69253;SDS011;56364;41.816;12.448;2022-10-31T09:07:51;8.52;;;2.30;;
69253;SDS011;56364;41.816;12.448;2022-10-31T09:10:17;5.53;;;2.22;;
69253;SDS011;56364;41.816;12.448;2022-10-31T09:12:43;4.40;;;1.88;;
69253;SDS011;56364;41.816;12.448;2022-10-31T09:15:09;5.30;;;2.20;;
69253;SDS011;56364;41.816;12.448;2022-10-31T09:17:35;6.25;;;1.92;;
69253;SDS011;56364;41.816;12.448;2022-10-31T09:20:01;6.32;;;2.05;;
69253;SDS011;56364;41.816;12.448;2022-10-31T09:24:53;2.55;;;1.58;;
69253;SDS011;56364;41.816;12.448;2022-10-31T09:27:19;6.93;;;1.85;;
69253;SDS011;56364;41.816;12.448;2022-10-31T09:29:45;6.63;;;2.30;;
69253;SDS011;56364;41.816;12.448;2022-10-31T09:32:11;3.90;;;1.88;;
69253;SDS011;56364;41.816;12.448;2022-10-31T09:34:37;5.53;;;2.47;;
69253;SDS011;56364;41.816;12.448;2022-10-31T09:39:29;3.35;;;1.85;;
69253;SDS011;56364;41.816;12.448;2022-10-31T09:52:12;7.45;;;2.03;;
69253;SDS011;56364;41.816;12.448;2022-10-31T09:54:52;3.53;;;1.95;;
69253;SDS011;56364;41.816;12.448;2022-10-31T09:57:22;5.90;;;2.33;;
69253;SDS011;56364;41.816;12.448;2022-10-31T09:59:49;7.05;;;2.28;;
69253;SDS011;56364;41.816;12.448;2022-10-31T10:02:17;7.10;;;2.30;;
69253;SDS011;56364;41.816;12.448;2022-10-31T10:04:51;4.95;;;1.88;;
69253;SDS011;56364;41.816;12.448;2022-10-31T10:11:06;3.95;;;1.90;;
69253;SDS011;56364;41.816;12.448;2022-10-31T10:21:34;4.32;;;1.60;;
69253;SDS011;56364;41.816;12.448;2022-10-31T10:26:36;5.28;;;2.03;;
69253;SDS011;56364;41.816;12.448;2022-10-31T10:29:08;3.80;;;1.83;;
69253;SDS011;56364;41.816;12.448;2022-10-31T10:31:38;4.68;;;1.75;;
69253;SDS011;56364;41.816;12.448;2022-10-31T10:37:03;7.50;;;2.00;;
69253;SDS011;56364;41.816;12.448;2022-10-31T10:41:55;5.90;;;2.25;;
69253;SDS011;56364;41.816;12.448;2022-10-31T10:44:43;4.95;;;2.53;;
69253;SDS011;56364;41.816;12.448;2022-10-31T10:47:30;5.35;;;2.05;;
69253;SDS011;56364;41.816;12.448;2022-10-31T10:50:02;7.10;;;2.03;;
69253;SDS011;56364;41.816;12.448;2022-10-31T10:52:37;5.97;;;1.70;;
69253;SDS011;56364;41.816;12.448;2022-10-31T10:55:11;4.40;;;1.65;;
69253;SDS011;56364;41.816;12.448;2022-10-31T10:58:12;7.50;;;1.95;;
69253;SDS011;56364;41.816;12.448;2022-10-31T11:00:49;6.25;;;1.83;;
69253;SDS011;56364;41.816;12.448;2022-10-31T11:03:16;4.35;;;2.20;;
69253;SDS011;56364;41.816;12.448;2022-10-31T11:05:52;4.30;;;1.77;;
69253;SDS011;56364;41.816;12.448;2022-10-31T11:11:02;3.22;;;1.60;;
69253;SDS011;56364;41.816;12.448;2022-10-31T11:13:28;5.60;;;1.73;;
69253;SDS011;56364;41.816;12.448;2022-10-31T11:15:56;4.47;;;1.80;;
69253;SDS011;56364;41.816;12.448;2022-10-31T11:18:25;3.60;;;1.73;;
69253;SDS011;56364;41.816;12.448;2022-10-31T11:20:52;6.25;;;2.13;;
69253;SDS011;56364;41.816;12.448;2022-10-31T11:23:19;3.10;;;1.55;;
69253;SDS011;56364;41.816;12.448;2022-10-31T11:25:54;4.45;;;1.90;;
69253;SDS011;56364;41.816;12.448;2022-10-31T11:28:20;5.63;;;1.80;;
69253;SDS011;56364;41.816;12.448;2022-10-31T11:30:48;7.82;;;2.03;;
69253;SDS011;56364;41.816;12.448;2022-10-31T11:33:19;4.47;;;1.63;;
69253;SDS011;56364;41.816;12.448;2022-10-31T11:35:47;6.30;;;1.88;;
69253;SDS011;56364;41.816;12.448;2022-10-31T11:38:18;6.35;;;1.95;;
69253;SDS011;56364;41.816;12.448;2022-10-31T11:43:53;4.85;;;1.85;;
69253;SDS011;56364;41.816;12.448;2022-10-31T11:46:37;5.65;;;1.90;;
69253;SDS011;56364;41.816;12.448;2022-10-31T11:49:04;2.78;;;1.70;;
69253;SDS011;56364;41.816;12.448;2022-10-31T11:51:32;6.28;;;1.60;;
69253;SDS011;56364;41.816;12.448;2022-10-31T11:53:59;7.15;;;1.70;;
69253;SDS011;56364;41.816;12.448;2022-10-31T11:56:39;4.82;;;1.60;;
69253;SDS011;56364;41.816;12.448;2022-10-31T11:59:14;6.85;;;1.95;;
69253;SDS011;56364;41.816;12.448;2022-10-31T12:01:45;8.32;;;1.80;;
69253;SDS011;56364;41.816;12.448;2022-10-31T12:04:12;4.47;;;1.85;;
69253;SDS011;56364;41.816;12.448;2022-10-31T12:06:39;5.60;;;1.73;;
69253;SDS011;56364;41.816;12.448;2022-10-31T12:09:16;5.72;;;1.85;;
69253;SDS011;56364;41.816;12.448;2022-10-31T12:12:01;5.07;;;1.80;;
69253;SDS011;56364;41.816;12.448;2022-10-31T12:17:14;5.93;;;1.58;;
69253;SDS011;56364;41.816;12.448;2022-10-31T12:19:51;5.20;;;1.77;;
69253;SDS011;56364;41.816;12.448;2022-10-31T12:25:02;6.70;;;1.70;;
69253;SDS011;56364;41.816;12.448;2022-10-31T12:27:34;4.60;;;1.80;;
69253;SDS011;56364;41.816;12.448;2022-10-31T12:35:13;4.50;;;1.60;;
69253;SDS011;56364;41.816;12.448;2022-10-31T12:45:41;3.65;;;1.70;;
69253;SDS011;56364;41.816;12.448;2022-10-31T12:53:46;4.53;;;1.92;;
69253;SDS011;56364;41.816;12.448;2022-10-31T12:56:28;4.47;;;1.45;;
69253;SDS011;56364;41.816;12.448;2022-10-31T13:01:24;5.75;;;1.70;;
69253;SDS011;56364;41.816;12.448;2022-10-31T13:03:53;5.32;;;1.70;;
69253;SDS011;56364;41.816;12.448;2022-10-31T13:06:22;3.08;;;1.52;;
69253;SDS011;56364;41.816;12.448;2022-10-31T13:08:51;4.80;;;1.58;;
69253;SDS011;56364;41.816;12.448;2022-10-31T13:11:28;4.78;;;1.65;;
69253;SDS011;56364;41.816;12.448;2022-10-31T13:14:05;3.47;;;1.67;;
69253;SDS011;56364;41.816;12.448;2022-10-31T13:16:36;5.35;;;2.08;;
69253;SDS011;56364;41.816;12.448;2022-10-31T13:19:14;5.35;;;1.58;;
69253;SDS011;56364;41.816;12.448;2022-10-31T13:24:10;5.38;;;1.50;;
69253;SDS011;56364;41.816;12.448;2022-10-31T13:26:42;6.45;;;1.52;;
69253;SDS011;56364;41.816;12.448;2022-10-31T13:29:29;4.10;;;1.60;;
69253;SDS011;56364;41.816;12.448;2022-10-31T13:31:58;4.85;;;1.92;;
69253;SDS011;56364;41.816;12.448;2022-10-31T13:34:33;5.30;;;1.80;;
69253;SDS011;56364;41.816;12.448;2022-10-31T13:37:03;3.90;;;1.80;;
69253;SDS011;56364;41.816;12.448;2022-10-31T13:42:14;4.65;;;1.60;;
69253;SDS011;56364;41.816;12.448;2022-10-31T13:44:43;6.32;;;1.98;;
69253;SDS011;56364;41.816;12.448;2022-10-31T13:47:28;5.35;;;1.73;;
69253;SDS011;56364;41.816;12.448;2022-10-31T13:52:39;4.50;;;1.60;;
69253;SDS011;56364;41.816;12.448;2022-10-31T13:55:07;5.18;;;1.98;;
69253;SDS011;56364;41.816;12.448;2022-10-31T13:57:51;6.35;;;1.65;;
69253;SDS011;56364;41.816;12.448;2022-10-31T14:02:51;4.22;;;1.55;;
69253;SDS011;56364;41.816;12.448;2022-10-31T14:05:26;6.38;;;1.80;;
69253;SDS011;56364;41.816;12.448;2022-10-31T14:07:53;8.88;;;2.10;;
69253;SDS011;56364;41.816;12.448;2022-10-31T14:10:27;4.13;;;1.70;;
69253;SDS011;56364;41.816;12.448;2022-10-31T14:13:41;5.13;;;2.10;;
69253;SDS011;56364;41.816;12.448;2022-10-31T14:15:41;2.95;;;1.52;;
69253;SDS011;56364;41.816;12.448;2022-10-31T14:18:21;6.82;;;1.67;;
69253;SDS011;56364;41.816;12.448;2022-10-31T14:20:48;6.78;;;1.95;;
69253;SDS011;56364;41.816;12.448;2022-10-31T14:47:41;3.53;;;1.80;;
69253;SDS011;56364;41.816;12.448;2022-10-31T14:52:39;8.10;;;1.88;;
69253;SDS011;56364;41.816;12.448;2022-10-31T14:55:07;4.30;;;1.50;;
69253;SDS011;56364;41.816;12.448;2022-10-31T14:57:36;3.15;;;1.65;;
69253;SDS011;56364;41.816;12.448;2022-10-31T15:00:06;3.70;;;1.58;;
69253;SDS011;56364;41.816;12.448;2022-10-31T15:05:34;9.57;;;1.67;;
69253;SDS011;56364;41.816;12.448;2022-10-31T15:08:01;3.97;;;1.77;;
69253;SDS011;56364;41.816;12.448;2022-10-31T15:10:31;4.93;;;1.48;;
69253;SDS011;56364;41.816;12.448;2022-10-31T15:13:10;5.18;;;1.58;;
69253;SDS011;56364;41.816;12.448;2022-10-31T15:15:36;3.67;;;1.42;;
69253;SDS011;56364;41.816;12.448;2022-10-31T15:18:03;7.10;;;1.90;;
69253;SDS011;56364;41.816;12.448;2022-10-31T15:20:30;4.63;;;2.25;;
69253;SDS011;56364;41.816;12.448;2022-10-31T15:22:59;4.47;;;1.70;;
69253;SDS011;56364;41.816;12.448;2022-10-31T15:25:27;4.68;;;1.65;;
69253;SDS011;56364;41.816;12.448;2022-10-31T15:27:54;4.88;;;1.60;;
69253;SDS011;56364;41.816;12.448;2022-10-31T15:30:24;3.95;;;1.73;;
69253;SDS011;56364;41.816;12.448;2022-10-31T15:32:50;6.13;;;1.85;;
69253;SDS011;56364;41.816;12.448;2022-10-31T15:35:24;3.00;;;1.52;;
69253;SDS011;56364;41.816;12.448;2022-10-31T15:37:53;5.97;;;1.77;;
69253;SDS011;56364;41.816;12.448;2022-10-31T15:40:21;3.45;;;1.55;;
69253;SDS011;56364;41.816;12.448;2022-10-31T15:42:56;6.55;;;1.80;;
69253;SDS011;56364;41.816;12.448;2022-10-31T15:45:23;4.57;;;1.40;;
69253;SDS011;56364;41.816;12.448;2022-10-31T15:47:54;4.40;;;1.33;;
69253;SDS011;56364;41.816;12.448;2022-10-31T15:50:30;4.20;;;1.70;;
69253;SDS011;56364;41.816;12.448;2022-10-31T15:52:57;3.00;;;1.63;;
69253;SDS011;56364;41.816;12.448;2022-10-31T15:55:25;4.30;;;1.40;;
69253;SDS011;56364;41.816;12.448;2022-10-31T15:57:55;5.60;;;1.60;;
69253;SDS011;56364;41.816;12.448;2022-10-31T16:00:33;6.65;;;1.80;;
69253;SDS011;56364;41.816;12.448;2022-10-31T16:05:34;2.70;;;1.40;;
69253;SDS011;56364;41.816;12.448;2022-10-31T16:08:00;5.50;;;1.75;;
69253;SDS011;56364;41.816;12.448;2022-10-31T16:10:26;6.50;;;1.50;;
69253;SDS011;56364;41.816;12.448;2022-10-31T16:15:19;4.05;;;1.60;;
69253;SDS011;56364;41.816;12.448;2022-10-31T16:17:47;5.43;;;1.38;;
69253;SDS011;56364;41.816;12.448;2022-10-31T16:20:25;3.35;;;1.15;;
69253;SDS011;56364;41.816;12.448;2022-10-31T16:25:24;4.10;;;1.33;;
69253;SDS011;56364;41.816;12.448;2022-10-31T16:27:51;4.95;;;1.77;;
69253;SDS011;56364;41.816;12.448;2022-10-31T16:32:54;4.97;;;1.50;;
69253;SDS011;56364;41.816;12.448;2022-10-31T16:35:24;4.72;;;1.83;;
69253;SDS011;56364;41.816;12.448;2022-10-31T16:37:51;4.35;;;1.67;;
69253;SDS011;56364;41.816;12.448;2022-10-31T16:40:17;5.13;;;1.70;;
69253;SDS011;56364;41.816;12.448;2022-10-31T16:42:44;4.68;;;1.75;;
69253;SDS011;56364;41.816;12.448;2022-10-31T16:45:22;5.18;;;1.70;;
69253;SDS011;56364;41.816;12.448;2022-10-31T16:47:48;4.32;;;1.80;;
69253;SDS011;56364;41.816;12.448;2022-10-31T16:50:22;6.93;;;1.70;;
69253;SDS011;56364;41.816;12.448;2022-10-31T16:52:49;5.20;;;1.83;;
69253;SDS011;56364;41.816;12.448;2022-10-31T16:55:15;6.05;;;1.77;;
69253;SDS011;56364;41.816;12.448;2022-10-31T16:57:42;3.90;;;1.70;;
69253;SDS011;56364;41.816;12.448;2022-10-31T17:00:23;3.63;;;1.42;;
69253;SDS011;56364;41.816;12.448;2022-10-31T17:02:53;3.95;;;1.50;;
69253;SDS011;56364;41.816;12.448;2022-10-31T17:05:20;4.75;;;1.70;;
69253;SDS011;56364;41.816;12.448;2022-10-31T17:07:47;4.65;;;1.42;;
69253;SDS011;56364;41.816;12.448;2022-10-31T17:10:15;4.88;;;1.88;;
69253;SDS011;56364;41.816;12.448;2022-10-31T17:12:42;2.63;;;1.60;;
69253;SDS011;56364;41.816;12.448;2022-10-31T17:15:16;7.00;;;1.70;;
69253;SDS011;56364;41.816;12.448;2022-10-31T17:17:43;6.30;;;1.70;;
69253;SDS011;56364;41.816;12.448;2022-10-31T17:20:20;6.10;;;1.50;;
69253;SDS011;56364;41.816;12.448;2022-10-31T17:22:47;7.15;;;1.73;;
69253;SDS011;56364;41.816;12.448;2022-10-31T17:25:17;10.02;;;1.58;;
69253;SDS011;56364;41.816;12.448;2022-10-31T17:27:43;4.88;;;1.55;;
69253;SDS011;56364;41.816;12.448;2022-10-31T17:32:35;4.22;;;1.58;;
69253;SDS011;56364;41.816;12.448;2022-10-31T17:35:01;4.35;;;1.52;;
69253;SDS011;56364;41.816;12.448;2022-10-31T17:37:27;5.90;;;1.92;;
69253;SDS011;56364;41.816;12.448;2022-10-31T17:39:53;4.80;;;1.50;;
69253;SDS011;56364;41.816;12.448;2022-10-31T17:42:19;9.52;;;2.15;;
69253;SDS011;56364;41.816;12.448;2022-10-31T17:44:46;4.65;;;1.55;;
69253;SDS011;56364;41.816;12.448;2022-10-31T17:47:12;5.63;;;1.77;;
69253;SDS011;56364;41.816;12.448;2022-10-31T17:52:04;6.55;;;1.40;;
69253;SDS011;56364;41.816;12.448;2022-10-31T17:54:30;3.22;;;1.50;;
69253;SDS011;56364;41.816;12.448;2022-10-31T17:56:56;3.90;;;2.00;;
69253;SDS011;56364;41.816;12.448;2022-10-31T17:59:22;3.75;;;1.67;;
69253;SDS011;56364;41.816;12.448;2022-10-31T18:01:48;5.78;;;1.70;;
69253;SDS011;56364;41.816;12.448;2022-10-31T18:04:14;7.45;;;2.05;;
69253;SDS011;56364;41.816;12.448;2022-10-31T18:06:40;4.63;;;2.03;;
69253;SDS011;56364;41.816;12.448;2022-10-31T18:09:06;4.13;;;1.58;;
69253;SDS011;56364;41.816;12.448;2022-10-31T18:11:32;5.70;;;1.60;;
69253;SDS011;56364;41.816;12.448;2022-10-31T18:13:58;4.13;;;1.85;;
69253;SDS011;56364;41.816;12.448;2022-10-31T18:16:25;5.35;;;2.00;;
69253;SDS011;56364;41.816;12.448;2022-10-31T18:18:52;4.75;;;1.67;;
69253;SDS011;56364;41.816;12.448;2022-10-31T18:21:18;5.90;;;1.80;;
69253;SDS011;56364;41.816;12.448;2022-10-31T18:23:44;6.53;;;2.38;;
69253;SDS011;56364;41.816;12.448;2022-10-31T18:26:11;4.43;;;1.95;;
69253;SDS011;56364;41.816;12.448;2022-10-31T18:28:38;4.32;;;1.98;;